sensor_id;sensor_type;location;lat;lon;timestamp;P1;durP1;ratioP1;P2;durP2;ratioP2
8881;SDS011;4477;48.736;9.176;2022-11-20T00:01:26;12.00;;;8.87;;
8881;SDS011;4477;48.736;9.176;2022-11-20T00:03:54;12.87;;;9.50;;
8881;SDS011;4477;48.736;9.176;2022-11-20T00:06:24;11.57;;;9.20;;
8881;SDS011;4477;48.736;9.176;2022-11-20T00:08:53;10.70;;;8.80;;
8881;SDS011;4477;48.736;9.176;2022-11-20T00:11:21;9.07;;;8.13;;
8881;SDS011;4477;48.736;9.176;2022-11-20T00:13:49;11.00;;;9.40;;
8881;SDS011;4477;48.736;9.176;2022-11-20T00:16:17;10.97;;;9.80;;
8881;SDS011;4477;48.736;9.176;2022-11-20T00:18:44;10.10;;;9.00;;
8881;SDS011;4477;48.736;9.176;2022-11-20T00:21:12;10.37;;;9.00;;
8881;SDS011;4477;48.736;9.176;2022-11-20T00:23:41;10.90;;;8.97;;
8881;SDS011;4477;48.736;9.176;2022-11-20T00:26:09;12.40;;;9.73;;
8881;SDS011;4477;48.736;9.176;2022-11-20T00:28:37;9.83;;;8.33;;
8881;SDS011;4477;48.736;9.176;2022-11-20T00:31:05;12.87;;;9.90;;
8881;SDS011;4477;48.736;9.176;2022-11-20T00:33:33;10.50;;;8.20;;
8881;SDS011;4477;48.736;9.176;2022-11-20T00:36:00;10.60;;;8.87;;
8881;SDS011;4477;48.736;9.176;2022-11-20T00:38:28;10.23;;;9.10;;
8881;SDS011;4477;48.736;9.176;2022-11-20T00:40:58;11.30;;;9.03;;
8881;SDS011;4477;48.736;9.176;2022-11-20T00:43:25;9.70;;;7.60;;
8881;SDS011;4477;48.736;9.176;2022-11-20T00:45:56;11.03;;;8.93;;
8881;SDS011;4477;48.736;9.176;2022-11-20T00:48:23;9.10;;;8.07;;
8881;SDS011;4477;48.736;9.176;2022-11-20T00:50:50;11.33;;;7.97;;
8881;SDS011;4477;48.736;9.176;2022-11-20T00:53:17;8.70;;;7.67;;
8881;SDS011;4477;48.736;9.176;2022-11-20T00:55:52;12.00;;;8.30;;
8881;SDS011;4477;48.736;9.176;2022-11-20T00:58:20;9.70;;;7.10;;
8881;SDS011;4477;48.736;9.176;2022-11-20T01:00:48;9.87;;;7.27;;
8881;SDS011;4477;48.736;9.176;2022-11-20T01:03:15;9.03;;;6.87;;
8881;SDS011;4477;48.736;9.176;2022-11-20T01:05:43;8.07;;;6.67;;
8881;SDS011;4477;48.736;9.176;2022-11-20T01:08:11;7.93;;;6.83;;
8881;SDS011;4477;48.736;9.176;2022-11-20T01:10:38;6.97;;;6.27;;
8881;SDS011;4477;48.736;9.176;2022-11-20T01:13:05;7.67;;;6.93;;
8881;SDS011;4477;48.736;9.176;2022-11-20T01:15:51;8.23;;;6.13;;
8881;SDS011;4477;48.736;9.176;2022-11-20T01:18:18;7.53;;;6.20;;
8881;SDS011;4477;48.736;9.176;2022-11-20T01:20:45;6.93;;;6.23;;
8881;SDS011;4477;48.736;9.176;2022-11-20T01:23:13;6.93;;;6.23;;
8881;SDS011;4477;48.736;9.176;2022-11-20T01:25:40;6.63;;;6.03;;
8881;SDS011;4477;48.736;9.176;2022-11-20T01:28:07;8.07;;;6.17;;
8881;SDS011;4477;48.736;9.176;2022-11-20T01:30:34;6.20;;;5.57;;
8881;SDS011;4477;48.736;9.176;2022-11-20T01:33:02;7.23;;;5.67;;
8881;SDS011;4477;48.736;9.176;2022-11-20T01:35:30;9.13;;;6.13;;
8881;SDS011;4477;48.736;9.176;2022-11-20T01:37:57;7.80;;;6.17;;
8881;SDS011;4477;48.736;9.176;2022-11-20T01:40:24;6.87;;;5.87;;
8881;SDS011;4477;48.736;9.176;2022-11-20T01:42:52;6.10;;;5.50;;
8881;SDS011;4477;48.736;9.176;2022-11-20T01:45:42;6.60;;;5.90;;
8881;SDS011;4477;48.736;9.176;2022-11-20T01:48:17;6.93;;;6.07;;
8881;SDS011;4477;48.736;9.176;2022-11-20T01:50:44;7.73;;;5.47;;
8881;SDS011;4477;48.736;9.176;2022-11-20T01:53:12;6.80;;;6.10;;
8881;SDS011;4477;48.736;9.176;2022-11-20T01:55:41;7.63;;;5.40;;
8881;SDS011;4477;48.736;9.176;2022-11-20T01:58:10;7.70;;;5.70;;
8881;SDS011;4477;48.736;9.176;2022-11-20T02:00:38;6.30;;;5.37;;
8881;SDS011;4477;48.736;9.176;2022-11-20T02:03:06;6.70;;;6.00;;
8881;SDS011;4477;48.736;9.176;2022-11-20T02:05:37;6.10;;;5.50;;
8881;SDS011;4477;48.736;9.176;2022-11-20T02:08:05;6.63;;;5.87;;
8881;SDS011;4477;48.736;9.176;2022-11-20T02:10:32;6.53;;;5.87;;
8881;SDS011;4477;48.736;9.176;2022-11-20T02:13:00;8.77;;;6.43;;
8881;SDS011;4477;48.736;9.176;2022-11-20T02:15:41;7.20;;;6.00;;
8881;SDS011;4477;48.736;9.176;2022-11-20T02:18:08;6.90;;;6.20;;
8881;SDS011;4477;48.736;9.176;2022-11-20T02:20:37;6.40;;;5.77;;
8881;SDS011;4477;48.736;9.176;2022-11-20T02:23:07;7.23;;;6.03;;
8881;SDS011;4477;48.736;9.176;2022-11-20T02:25:37;6.87;;;6.20;;
8881;SDS011;4477;48.736;9.176;2022-11-20T02:28:04;6.87;;;6.17;;
8881;SDS011;4477;48.736;9.176;2022-11-20T02:30:32;6.93;;;5.90;;
8881;SDS011;4477;48.736;9.176;2022-11-20T02:32:59;7.13;;;6.03;;
8881;SDS011;4477;48.736;9.176;2022-11-20T02:35:40;7.00;;;6.30;;
8881;SDS011;4477;48.736;9.176;2022-11-20T02:38:08;7.70;;;6.50;;
8881;SDS011;4477;48.736;9.176;2022-11-20T02:40:36;9.63;;;6.90;;
8881;SDS011;4477;48.736;9.176;2022-11-20T02:43:03;11.53;;;7.33;;
8881;SDS011;4477;48.736;9.176;2022-11-20T02:45:30;8.33;;;6.70;;
8881;SDS011;4477;48.736;9.176;2022-11-20T02:47:57;7.40;;;6.67;;
8881;SDS011;4477;48.736;9.176;2022-11-20T02:50:25;7.20;;;6.50;;
8881;SDS011;4477;48.736;9.176;2022-11-20T02:52:52;8.00;;;7.03;;
8881;SDS011;4477;48.736;9.176;2022-11-20T02:55:19;13.27;;;7.93;;
8881;SDS011;4477;48.736;9.176;2022-11-20T02:57:47;9.37;;;7.70;;
8881;SDS011;4477;48.736;9.176;2022-11-20T03:00:15;10.27;;;8.20;;
8881;SDS011;4477;48.736;9.176;2022-11-20T03:02:42;9.77;;;8.37;;
8881;SDS011;4477;48.736;9.176;2022-11-20T03:05:10;9.73;;;8.43;;
8881;SDS011;4477;48.736;9.176;2022-11-20T03:07:37;8.30;;;7.50;;
8881;SDS011;4477;48.736;9.176;2022-11-20T03:10:04;8.93;;;7.80;;
8881;SDS011;4477;48.736;9.176;2022-11-20T03:12:32;8.77;;;7.87;;
8881;SDS011;4477;48.736;9.176;2022-11-20T03:15:00;8.63;;;7.80;;
8881;SDS011;4477;48.736;9.176;2022-11-20T03:17:27;9.20;;;7.03;;
8881;SDS011;4477;48.736;9.176;2022-11-20T03:19:55;8.60;;;7.30;;
8881;SDS011;4477;48.736;9.176;2022-11-20T03:22:22;8.57;;;7.50;;
8881;SDS011;4477;48.736;9.176;2022-11-20T03:24:50;8.00;;;7.27;;
8881;SDS011;4477;48.736;9.176;2022-11-20T03:27:17;9.13;;;8.23;;
8881;SDS011;4477;48.736;9.176;2022-11-20T03:29:44;9.77;;;7.77;;
8881;SDS011;4477;48.736;9.176;2022-11-20T03:32:12;8.10;;;7.30;;
8881;SDS011;4477;48.736;9.176;2022-11-20T03:34:40;8.60;;;7.63;;
8881;SDS011;4477;48.736;9.176;2022-11-20T03:37:07;8.77;;;7.10;;
8881;SDS011;4477;48.736;9.176;2022-11-20T03:39:34;8.20;;;7.40;;
8881;SDS011;4477;48.736;9.176;2022-11-20T03:42:01;9.43;;;7.60;;
8881;SDS011;4477;48.736;9.176;2022-11-20T03:44:48;8.13;;;6.97;;
8881;SDS011;4477;48.736;9.176;2022-11-20T03:47:17;8.73;;;7.83;;
8881;SDS011;4477;48.736;9.176;2022-11-20T03:49:44;9.63;;;8.63;;
8881;SDS011;4477;48.736;9.176;2022-11-20T03:52:11;10.37;;;8.10;;
8881;SDS011;4477;48.736;9.176;2022-11-20T03:54:38;9.20;;;8.30;;
8881;SDS011;4477;48.736;9.176;2022-11-20T03:57:05;12.03;;;9.00;;
8881;SDS011;4477;48.736;9.176;2022-11-20T03:59:32;10.33;;;8.73;;
8881;SDS011;4477;48.736;9.176;2022-11-20T04:02:00;10.83;;;8.93;;
8881;SDS011;4477;48.736;9.176;2022-11-20T04:04:28;10.47;;;9.40;;
8881;SDS011;4477;48.736;9.176;2022-11-20T04:06:55;10.63;;;8.97;;
8881;SDS011;4477;48.736;9.176;2022-11-20T04:09:22;12.60;;;10.30;;
8881;SDS011;4477;48.736;9.176;2022-11-20T04:11:49;12.23;;;10.13;;
8881;SDS011;4477;48.736;9.176;2022-11-20T04:14:17;10.27;;;9.30;;
8881;SDS011;4477;48.736;9.176;2022-11-20T04:16:44;11.00;;;9.87;;
8881;SDS011;4477;48.736;9.176;2022-11-20T04:19:11;10.07;;;8.70;;
8881;SDS011;4477;48.736;9.176;2022-11-20T04:21:40;10.13;;;9.00;;
8881;SDS011;4477;48.736;9.176;2022-11-20T04:24:08;10.00;;;9.00;;
8881;SDS011;4477;48.736;9.176;2022-11-20T04:26:35;9.67;;;8.70;;
8881;SDS011;4477;48.736;9.176;2022-11-20T04:29:02;11.00;;;8.70;;
8881;SDS011;4477;48.736;9.176;2022-11-20T04:31:31;11.57;;;8.50;;
8881;SDS011;4477;48.736;9.176;2022-11-20T04:33:58;9.80;;;8.20;;
8881;SDS011;4477;48.736;9.176;2022-11-20T04:36:26;10.73;;;9.37;;
8881;SDS011;4477;48.736;9.176;2022-11-20T04:38:55;9.03;;;7.93;;
8881;SDS011;4477;48.736;9.176;2022-11-20T04:41:24;9.10;;;8.20;;
8881;SDS011;4477;48.736;9.176;2022-11-20T04:43:52;10.00;;;8.50;;
8881;SDS011;4477;48.736;9.176;2022-11-20T04:46:23;10.03;;;9.03;;
8881;SDS011;4477;48.736;9.176;2022-11-20T04:48:51;10.40;;;8.70;;
8881;SDS011;4477;48.736;9.176;2022-11-20T04:51:18;10.13;;;9.10;;
8881;SDS011;4477;48.736;9.176;2022-11-20T04:53:45;9.83;;;8.73;;
8881;SDS011;4477;48.736;9.176;2022-11-20T04:56:14;9.07;;;7.80;;
8881;SDS011;4477;48.736;9.176;2022-11-20T04:58:41;10.00;;;8.70;;
8881;SDS011;4477;48.736;9.176;2022-11-20T05:01:09;9.70;;;8.70;;
8881;SDS011;4477;48.736;9.176;2022-11-20T05:03:36;9.40;;;8.10;;
8881;SDS011;4477;48.736;9.176;2022-11-20T05:06:04;9.00;;;8.03;;
8881;SDS011;4477;48.736;9.176;2022-11-20T05:08:32;10.27;;;8.07;;
8881;SDS011;4477;48.736;9.176;2022-11-20T05:10:59;8.03;;;7.23;;
8881;SDS011;4477;48.736;9.176;2022-11-20T05:13:28;8.37;;;7.53;;
8881;SDS011;4477;48.736;9.176;2022-11-20T05:15:55;8.10;;;7.30;;
8881;SDS011;4477;48.736;9.176;2022-11-20T05:18:22;8.03;;;7.23;;
8881;SDS011;4477;48.736;9.176;2022-11-20T05:20:54;8.03;;;7.23;;
8881;SDS011;4477;48.736;9.176;2022-11-20T05:23:21;7.07;;;6.37;;
8881;SDS011;4477;48.736;9.176;2022-11-20T05:25:48;6.93;;;6.23;;
8881;SDS011;4477;48.736;9.176;2022-11-20T05:28:18;8.00;;;6.43;;
8881;SDS011;4477;48.736;9.176;2022-11-20T05:30:46;6.60;;;5.87;;
8881;SDS011;4477;48.736;9.176;2022-11-20T05:33:13;5.93;;;5.33;;
8881;SDS011;4477;48.736;9.176;2022-11-20T05:35:40;6.80;;;5.87;;
8881;SDS011;4477;48.736;9.176;2022-11-20T05:38:08;6.63;;;6.03;;
8881;SDS011;4477;48.736;9.176;2022-11-20T05:40:35;7.10;;;6.00;;
8881;SDS011;4477;48.736;9.176;2022-11-20T05:43:02;6.33;;;5.73;;
8881;SDS011;4477;48.736;9.176;2022-11-20T05:45:29;7.13;;;5.93;;
8881;SDS011;4477;48.736;9.176;2022-11-20T05:47:58;5.93;;;5.33;;
8881;SDS011;4477;48.736;9.176;2022-11-20T05:50:26;6.50;;;5.13;;
8881;SDS011;4477;48.736;9.176;2022-11-20T05:52:53;5.70;;;4.90;;
8881;SDS011;4477;48.736;9.176;2022-11-20T05:55:20;6.17;;;5.57;;
8881;SDS011;4477;48.736;9.176;2022-11-20T05:57:47;5.17;;;4.77;;
8881;SDS011;4477;48.736;9.176;2022-11-20T06:00:15;6.60;;;5.13;;
8881;SDS011;4477;48.736;9.176;2022-11-20T06:02:42;5.70;;;5.20;;
8881;SDS011;4477;48.736;9.176;2022-11-20T06:05:10;6.00;;;5.20;;
8881;SDS011;4477;48.736;9.176;2022-11-20T06:07:37;5.60;;;5.10;;
8881;SDS011;4477;48.736;9.176;2022-11-20T06:10:05;6.17;;;5.00;;
8881;SDS011;4477;48.736;9.176;2022-11-20T06:12:32;5.70;;;5.03;;
8881;SDS011;4477;48.736;9.176;2022-11-20T06:14:59;5.20;;;4.70;;
8881;SDS011;4477;48.736;9.176;2022-11-20T06:17:26;6.30;;;4.73;;
8881;SDS011;4477;48.736;9.176;2022-11-20T06:19:53;5.90;;;5.20;;
8881;SDS011;4477;48.736;9.176;2022-11-20T06:22:22;5.60;;;5.10;;
8881;SDS011;4477;48.736;9.176;2022-11-20T06:24:49;6.77;;;4.80;;
8881;SDS011;4477;48.736;9.176;2022-11-20T06:27:16;6.53;;;5.10;;
8881;SDS011;4477;48.736;9.176;2022-11-20T06:29:43;5.90;;;4.90;;
8881;SDS011;4477;48.736;9.176;2022-11-20T06:32:10;6.80;;;5.27;;
8881;SDS011;4477;48.736;9.176;2022-11-20T06:34:37;5.00;;;4.50;;
8881;SDS011;4477;48.736;9.176;2022-11-20T06:37:04;5.63;;;4.90;;
8881;SDS011;4477;48.736;9.176;2022-11-20T06:39:33;5.70;;;4.27;;
8881;SDS011;4477;48.736;9.176;2022-11-20T06:42:00;5.63;;;4.30;;
8881;SDS011;4477;48.736;9.176;2022-11-20T06:44:27;5.90;;;4.40;;
8881;SDS011;4477;48.736;9.176;2022-11-20T06:46:54;4.87;;;4.37;;
8881;SDS011;4477;48.736;9.176;2022-11-20T06:49:21;5.43;;;4.37;;
8881;SDS011;4477;48.736;9.176;2022-11-20T06:51:48;4.60;;;4.20;;
8881;SDS011;4477;48.736;9.176;2022-11-20T06:54:16;4.63;;;4.20;;
8881;SDS011;4477;48.736;9.176;2022-11-20T06:56:47;5.07;;;4.33;;
8881;SDS011;4477;48.736;9.176;2022-11-20T06:59:14;5.53;;;4.17;;
8881;SDS011;4477;48.736;9.176;2022-11-20T07:01:41;4.83;;;4.13;;
8881;SDS011;4477;48.736;9.176;2022-11-20T07:04:08;5.03;;;4.53;;
8881;SDS011;4477;48.736;9.176;2022-11-20T07:06:35;4.77;;;4.33;;
8881;SDS011;4477;48.736;9.176;2022-11-20T07:09:03;5.53;;;4.73;;
8881;SDS011;4477;48.736;9.176;2022-11-20T07:11:30;6.27;;;4.87;;
8881;SDS011;4477;48.736;9.176;2022-11-20T07:13:58;5.43;;;4.93;;
8881;SDS011;4477;48.736;9.176;2022-11-20T07:16:25;5.00;;;4.50;;
8881;SDS011;4477;48.736;9.176;2022-11-20T07:18:52;6.10;;;5.47;;
8881;SDS011;4477;48.736;9.176;2022-11-20T07:21:20;6.53;;;4.60;;
8881;SDS011;4477;48.736;9.176;2022-11-20T07:23:47;4.93;;;4.43;;
8881;SDS011;4477;48.736;9.176;2022-11-20T07:26:14;4.80;;;4.40;;
8881;SDS011;4477;48.736;9.176;2022-11-20T07:28:43;5.20;;;4.53;;
8881;SDS011;4477;48.736;9.176;2022-11-20T07:31:12;5.53;;;4.57;;
8881;SDS011;4477;48.736;9.176;2022-11-20T07:33:39;4.97;;;4.10;;
8881;SDS011;4477;48.736;9.176;2022-11-20T07:36:06;4.60;;;4.00;;
8881;SDS011;4477;48.736;9.176;2022-11-20T07:38:33;6.00;;;4.33;;
8881;SDS011;4477;48.736;9.176;2022-11-20T07:41:01;4.77;;;4.20;;
8881;SDS011;4477;48.736;9.176;2022-11-20T07:43:28;4.23;;;3.77;;
8881;SDS011;4477;48.736;9.176;2022-11-20T07:45:55;5.93;;;3.63;;
8881;SDS011;4477;48.736;9.176;2022-11-20T07:48:23;3.83;;;3.50;;
8881;SDS011;4477;48.736;9.176;2022-11-20T07:50:52;4.87;;;3.63;;
8881;SDS011;4477;48.736;9.176;2022-11-20T07:53:20;4.63;;;3.67;;
8881;SDS011;4477;48.736;9.176;2022-11-20T07:55:47;4.60;;;3.70;;
8881;SDS011;4477;48.736;9.176;2022-11-20T07:58:15;3.90;;;3.50;;
8881;SDS011;4477;48.736;9.176;2022-11-20T08:00:42;4.30;;;3.13;;
8881;SDS011;4477;48.736;9.176;2022-11-20T08:03:09;3.30;;;3.00;;
8881;SDS011;4477;48.736;9.176;2022-11-20T08:05:38;3.70;;;3.20;;
8881;SDS011;4477;48.736;9.176;2022-11-20T08:08:05;3.70;;;3.13;;
8881;SDS011;4477;48.736;9.176;2022-11-20T08:10:32;4.37;;;3.20;;
8881;SDS011;4477;48.736;9.176;2022-11-20T08:13:00;3.20;;;2.90;;
8881;SDS011;4477;48.736;9.176;2022-11-20T08:15:47;4.37;;;3.77;;
8881;SDS011;4477;48.736;9.176;2022-11-20T08:18:15;3.00;;;2.70;;
8881;SDS011;4477;48.736;9.176;2022-11-20T08:20:44;3.70;;;3.37;;
8881;SDS011;4477;48.736;9.176;2022-11-20T08:23:11;4.43;;;3.03;;
8881;SDS011;4477;48.736;9.176;2022-11-20T08:25:39;3.40;;;3.10;;
8881;SDS011;4477;48.736;9.176;2022-11-20T08:28:07;3.40;;;2.63;;
8881;SDS011;4477;48.736;9.176;2022-11-20T08:30:34;3.40;;;2.53;;
8881;SDS011;4477;48.736;9.176;2022-11-20T08:33:02;2.90;;;2.70;;
8881;SDS011;4477;48.736;9.176;2022-11-20T08:35:32;3.20;;;2.90;;
8881;SDS011;4477;48.736;9.176;2022-11-20T08:38:01;3.20;;;2.70;;
8881;SDS011;4477;48.736;9.176;2022-11-20T08:40:28;4.23;;;2.87;;
8881;SDS011;4477;48.736;9.176;2022-11-20T08:42:55;2.93;;;2.60;;
8881;SDS011;4477;48.736;9.176;2022-11-20T08:45:23;3.60;;;2.40;;
8881;SDS011;4477;48.736;9.176;2022-11-20T08:47:50;2.97;;;2.67;;
8881;SDS011;4477;48.736;9.176;2022-11-20T08:50:17;3.70;;;2.63;;
8881;SDS011;4477;48.736;9.176;2022-11-20T08:52:45;2.97;;;2.77;;
8881;SDS011;4477;48.736;9.176;2022-11-20T08:55:13;6.17;;;5.67;;
8881;SDS011;4477;48.736;9.176;2022-11-20T08:57:40;4.30;;;4.00;;
8881;SDS011;4477;48.736;9.176;2022-11-20T09:00:09;3.13;;;2.93;;
8881;SDS011;4477;48.736;9.176;2022-11-20T09:02:37;3.93;;;3.63;;
8881;SDS011;4477;48.736;9.176;2022-11-20T09:05:04;7.20;;;6.10;;
8881;SDS011;4477;48.736;9.176;2022-11-20T09:07:31;4.97;;;4.40;;
8881;SDS011;4477;48.736;9.176;2022-11-20T09:09:58;7.27;;;6.63;;
8881;SDS011;4477;48.736;9.176;2022-11-20T09:12:30;2.33;;;1.77;;
8881;SDS011;4477;48.736;9.176;2022-11-20T09:20:03;2.03;;;1.40;;
8881;SDS011;4477;48.736;9.176;2022-11-20T09:22:31;1.60;;;1.50;;
8881;SDS011;4477;48.736;9.176;2022-11-20T09:24:58;1.40;;;1.30;;
8881;SDS011;4477;48.736;9.176;2022-11-20T09:27:25;2.20;;;2.00;;
8881;SDS011;4477;48.736;9.176;2022-11-20T09:29:53;3.17;;;2.87;;
8881;SDS011;4477;48.736;9.176;2022-11-20T09:32:20;1.90;;;1.70;;
8881;SDS011;4477;48.736;9.176;2022-11-20T09:34:48;2.50;;;2.30;;
8881;SDS011;4477;48.736;9.176;2022-11-20T09:37:15;2.03;;;1.93;;
8881;SDS011;4477;48.736;9.176;2022-11-20T09:39:42;1.87;;;1.77;;
8881;SDS011;4477;48.736;9.176;2022-11-20T09:42:19;1.70;;;1.50;;
8881;SDS011;4477;48.736;9.176;2022-11-20T09:44:53;1.43;;;1.33;;
8881;SDS011;4477;48.736;9.176;2022-11-20T09:47:26;1.50;;;1.40;;
8881;SDS011;4477;48.736;9.176;2022-11-20T09:50:02;2.70;;;2.50;;
8881;SDS011;4477;48.736;9.176;2022-11-20T09:52:32;1.93;;;1.20;;
8881;SDS011;4477;48.736;9.176;2022-11-20T09:55:03;13.67;;;12.23;;
8881;SDS011;4477;48.736;9.176;2022-11-20T09:57:33;3.63;;;3.33;;
8881;SDS011;4477;48.736;9.176;2022-11-20T10:00:01;1.63;;;1.40;;
8881;SDS011;4477;48.736;9.176;2022-11-20T10:02:34;1.27;;;1.20;;
8881;SDS011;4477;48.736;9.176;2022-11-20T10:05:05;1.40;;;1.30;;
8881;SDS011;4477;48.736;9.176;2022-11-20T10:07:35;1.07;;;1.00;;
8881;SDS011;4477;48.736;9.176;2022-11-20T10:10:04;1.83;;;1.20;;
8881;SDS011;4477;48.736;9.176;2022-11-20T10:12:34;1.60;;;1.50;;
8881;SDS011;4477;48.736;9.176;2022-11-20T10:15:10;1.30;;;1.20;;
8881;SDS011;4477;48.736;9.176;2022-11-20T10:20:40;2.60;;;1.00;;
8881;SDS011;4477;48.736;9.176;2022-11-20T10:23:15;2.57;;;2.37;;
8881;SDS011;4477;48.736;9.176;2022-11-20T10:25:49;1.20;;;1.00;;
8881;SDS011;4477;48.736;9.176;2022-11-20T10:28:23;2.90;;;1.90;;
8881;SDS011;4477;48.736;9.176;2022-11-20T10:30:55;1.67;;;1.13;;
8881;SDS011;4477;48.736;9.176;2022-11-20T10:33:24;1.37;;;1.23;;
8881;SDS011;4477;48.736;9.176;2022-11-20T10:35:54;1.40;;;1.30;;
8881;SDS011;4477;48.736;9.176;2022-11-20T10:38:25;5.07;;;2.30;;
8881;SDS011;4477;48.736;9.176;2022-11-20T10:40:54;7.97;;;4.33;;
8881;SDS011;4477;48.736;9.176;2022-11-20T10:43:44;2.83;;;1.90;;
8881;SDS011;4477;48.736;9.176;2022-11-20T10:46:13;12.53;;;7.47;;
8881;SDS011;4477;48.736;9.176;2022-11-20T10:48:41;22.23;;;12.43;;
8881;SDS011;4477;48.736;9.176;2022-11-20T10:51:12;10.60;;;6.77;;
8881;SDS011;4477;48.736;9.176;2022-11-20T10:53:56;8.10;;;6.40;;
8881;SDS011;4477;48.736;9.176;2022-11-20T10:56:25;8.00;;;6.57;;
8881;SDS011;4477;48.736;9.176;2022-11-20T11:01:39;65.63;;;48.30;;
8881;SDS011;4477;48.736;9.176;2022-11-20T11:04:09;28.97;;;23.77;;
8881;SDS011;4477;48.736;9.176;2022-11-20T11:06:43;41.10;;;33.73;;
8881;SDS011;4477;48.736;9.176;2022-11-20T11:09:15;29.90;;;26.63;;
8881;SDS011;4477;48.736;9.176;2022-11-20T11:11:43;43.40;;;38.97;;
8881;SDS011;4477;48.736;9.176;2022-11-20T11:14:11;14.67;;;13.30;;
8881;SDS011;4477;48.736;9.176;2022-11-20T11:16:44;3.73;;;3.23;;
8881;SDS011;4477;48.736;9.176;2022-11-20T11:19:15;2.83;;;2.63;;
8881;SDS011;4477;48.736;9.176;2022-11-20T11:21:47;2.80;;;2.33;;
8881;SDS011;4477;48.736;9.176;2022-11-20T11:24:18;2.53;;;2.23;;
8881;SDS011;4477;48.736;9.176;2022-11-20T11:26:50;2.60;;;2.40;;
8881;SDS011;4477;48.736;9.176;2022-11-20T11:29:18;2.30;;;2.10;;
8881;SDS011;4477;48.736;9.176;2022-11-20T11:31:45;3.10;;;2.50;;
8881;SDS011;4477;48.736;9.176;2022-11-20T11:34:13;2.00;;;1.73;;
8881;SDS011;4477;48.736;9.176;2022-11-20T11:36:40;1.67;;;1.40;;
8881;SDS011;4477;48.736;9.176;2022-11-20T11:39:12;1.90;;;1.13;;
8881;SDS011;4477;48.736;9.176;2022-11-20T11:41:41;1.63;;;1.33;;
8881;SDS011;4477;48.736;9.176;2022-11-20T11:44:14;3.50;;;1.37;;
8881;SDS011;4477;48.736;9.176;2022-11-20T11:47:00;3.07;;;1.30;;
8881;SDS011;4477;48.736;9.176;2022-11-20T11:49:27;4.87;;;1.90;;
8881;SDS011;4477;48.736;9.176;2022-11-20T11:51:59;2.53;;;1.30;;
8881;SDS011;4477;48.736;9.176;2022-11-20T11:54:31;3.40;;;1.40;;
8881;SDS011;4477;48.736;9.176;2022-11-20T11:57:01;2.27;;;1.10;;
8881;SDS011;4477;48.736;9.176;2022-11-20T11:59:34;1.90;;;1.20;;
8881;SDS011;4477;48.736;9.176;2022-11-20T12:02:13;1.33;;;1.03;;
8881;SDS011;4477;48.736;9.176;2022-11-20T12:04:43;2.03;;;1.23;;
8881;SDS011;4477;48.736;9.176;2022-11-20T12:07:12;2.73;;;1.20;;
8881;SDS011;4477;48.736;9.176;2022-11-20T12:09:43;2.70;;;1.10;;
8881;SDS011;4477;48.736;9.176;2022-11-20T12:12:14;1.73;;;1.10;;
8881;SDS011;4477;48.736;9.176;2022-11-20T12:14:45;2.83;;;1.40;;
8881;SDS011;4477;48.736;9.176;2022-11-20T12:17:15;2.50;;;1.20;;
8881;SDS011;4477;48.736;9.176;2022-11-20T12:19:43;1.83;;;1.30;;
8881;SDS011;4477;48.736;9.176;2022-11-20T12:22:12;1.50;;;1.00;;
8881;SDS011;4477;48.736;9.176;2022-11-20T12:24:53;2.97;;;1.10;;
8881;SDS011;4477;48.736;9.176;2022-11-20T12:27:31;1.87;;;1.20;;
8881;SDS011;4477;48.736;9.176;2022-11-20T12:30:04;2.93;;;1.10;;
8881;SDS011;4477;48.736;9.176;2022-11-20T12:35:25;2.47;;;1.47;;
8881;SDS011;4477;48.736;9.176;2022-11-20T12:37:59;1.53;;;1.10;;
8881;SDS011;4477;48.736;9.176;2022-11-20T12:40:31;1.70;;;1.00;;
8881;SDS011;4477;48.736;9.176;2022-11-20T12:43:06;2.27;;;1.53;;
8881;SDS011;4477;48.736;9.176;2022-11-20T12:46:01;2.30;;;1.10;;
8881;SDS011;4477;48.736;9.176;2022-11-20T12:48:33;7.63;;;6.30;;
8881;SDS011;4477;48.736;9.176;2022-11-20T12:51:14;2.10;;;1.20;;
8881;SDS011;4477;48.736;9.176;2022-11-20T12:53:44;5.13;;;4.63;;
8881;SDS011;4477;48.736;9.176;2022-11-20T12:56:20;2.37;;;1.40;;
8881;SDS011;4477;48.736;9.176;2022-11-20T12:58:49;3.57;;;2.80;;
8881;SDS011;4477;48.736;9.176;2022-11-20T13:01:23;2.63;;;1.70;;
8881;SDS011;4477;48.736;9.176;2022-11-20T13:04:08;2.97;;;2.67;;
8881;SDS011;4477;48.736;9.176;2022-11-20T13:06:39;1.73;;;1.47;;
8881;SDS011;4477;48.736;9.176;2022-11-20T13:09:07;2.77;;;1.60;;
8881;SDS011;4477;48.736;9.176;2022-11-20T13:11:38;4.83;;;4.00;;
8881;SDS011;4477;48.736;9.176;2022-11-20T13:14:12;1.17;;;1.07;;
8881;SDS011;4477;48.736;9.176;2022-11-20T13:16:42;1.70;;;0.80;;
8881;SDS011;4477;48.736;9.176;2022-11-20T13:19:12;6.57;;;4.60;;
8881;SDS011;4477;48.736;9.176;2022-11-20T13:21:40;2.37;;;1.10;;
8881;SDS011;4477;48.736;9.176;2022-11-20T13:24:20;1.40;;;1.30;;
8881;SDS011;4477;48.736;9.176;2022-11-20T13:26:58;1.93;;;1.83;;
8881;SDS011;4477;48.736;9.176;2022-11-20T13:29:26;2.07;;;1.00;;
8881;SDS011;4477;48.736;9.176;2022-11-20T13:32:01;3.37;;;1.33;;
8881;SDS011;4477;48.736;9.176;2022-11-20T13:34:29;1.23;;;0.80;;
8881;SDS011;4477;48.736;9.176;2022-11-20T13:36:56;2.20;;;1.27;;
8881;SDS011;4477;48.736;9.176;2022-11-20T13:39:25;1.67;;;1.00;;
8881;SDS011;4477;48.736;9.176;2022-11-20T13:41:57;1.37;;;1.00;;
8881;SDS011;4477;48.736;9.176;2022-11-20T13:44:26;2.63;;;1.20;;
8881;SDS011;4477;48.736;9.176;2022-11-20T13:46:54;2.50;;;1.20;;
8881;SDS011;4477;48.736;9.176;2022-11-20T13:49:23;2.70;;;1.30;;
8881;SDS011;4477;48.736;9.176;2022-11-20T13:51:52;4.23;;;1.77;;
8881;SDS011;4477;48.736;9.176;2022-11-20T13:54:37;2.60;;;1.37;;
8881;SDS011;4477;48.736;9.176;2022-11-20T13:57:14;2.13;;;1.00;;
8881;SDS011;4477;48.736;9.176;2022-11-20T13:59:46;1.50;;;1.03;;
8881;SDS011;4477;48.736;9.176;2022-11-20T14:02:15;1.47;;;1.10;;
8881;SDS011;4477;48.736;9.176;2022-11-20T14:04:45;2.37;;;1.60;;
8881;SDS011;4477;48.736;9.176;2022-11-20T14:07:13;3.33;;;1.80;;
8881;SDS011;4477;48.736;9.176;2022-11-20T14:09:48;1.40;;;1.30;;
8881;SDS011;4477;48.736;9.176;2022-11-20T14:12:18;4.70;;;1.30;;
8881;SDS011;4477;48.736;9.176;2022-11-20T14:14:49;2.17;;;1.50;;
8881;SDS011;4477;48.736;9.176;2022-11-20T14:17:18;6.60;;;2.00;;
8881;SDS011;4477;48.736;9.176;2022-11-20T14:19:46;2.90;;;1.73;;
8881;SDS011;4477;48.736;9.176;2022-11-20T14:22:18;2.00;;;1.20;;
8881;SDS011;4477;48.736;9.176;2022-11-20T14:24:45;2.40;;;1.23;;
8881;SDS011;4477;48.736;9.176;2022-11-20T14:27:13;4.13;;;1.27;;
8881;SDS011;4477;48.736;9.176;2022-11-20T14:29:42;2.00;;;1.23;;
8881;SDS011;4477;48.736;9.176;2022-11-20T14:32:10;1.77;;;1.30;;
8881;SDS011;4477;48.736;9.176;2022-11-20T14:34:38;2.10;;;1.00;;
8881;SDS011;4477;48.736;9.176;2022-11-20T14:37:09;3.23;;;1.20;;
8881;SDS011;4477;48.736;9.176;2022-11-20T14:39:40;2.17;;;1.53;;
8881;SDS011;4477;48.736;9.176;2022-11-20T14:42:13;1.77;;;1.30;;
8881;SDS011;4477;48.736;9.176;2022-11-20T14:44:43;3.27;;;1.87;;
8881;SDS011;4477;48.736;9.176;2022-11-20T14:47:11;2.20;;;1.20;;
8881;SDS011;4477;48.736;9.176;2022-11-20T14:49:38;3.30;;;1.87;;
8881;SDS011;4477;48.736;9.176;2022-11-20T14:52:10;7.67;;;6.20;;
8881;SDS011;4477;48.736;9.176;2022-11-20T14:54:42;8.00;;;4.73;;
8881;SDS011;4477;48.736;9.176;2022-11-20T14:57:18;7.70;;;6.97;;
8881;SDS011;4477;48.736;9.176;2022-11-20T14:59:47;4.50;;;3.17;;
8881;SDS011;4477;48.736;9.176;2022-11-20T15:02:15;2.90;;;2.60;;
8881;SDS011;4477;48.736;9.176;2022-11-20T15:04:46;2.27;;;1.83;;
8881;SDS011;4477;48.736;9.176;2022-11-20T15:07:23;5.53;;;5.03;;
8881;SDS011;4477;48.736;9.176;2022-11-20T15:09:58;3.70;;;2.17;;
8881;SDS011;4477;48.736;9.176;2022-11-20T15:12:26;3.53;;;1.90;;
8881;SDS011;4477;48.736;9.176;2022-11-20T15:14:54;5.07;;;3.47;;
8881;SDS011;4477;48.736;9.176;2022-11-20T15:17:22;3.73;;;2.17;;
8881;SDS011;4477;48.736;9.176;2022-11-20T15:19:49;3.20;;;1.73;;
8881;SDS011;4477;48.736;9.176;2022-11-20T15:22:16;4.63;;;3.10;;
8881;SDS011;4477;48.736;9.176;2022-11-20T15:24:44;1.93;;;1.40;;
8881;SDS011;4477;48.736;9.176;2022-11-20T15:27:11;3.13;;;1.50;;
8881;SDS011;4477;48.736;9.176;2022-11-20T15:29:38;3.50;;;1.70;;
8881;SDS011;4477;48.736;9.176;2022-11-20T15:32:07;2.53;;;1.60;;
8881;SDS011;4477;48.736;9.176;2022-11-20T15:34:34;2.60;;;1.67;;
8881;SDS011;4477;48.736;9.176;2022-11-20T15:37:02;3.87;;;2.70;;
8881;SDS011;4477;48.736;9.176;2022-11-20T15:39:30;2.07;;;1.80;;